sensor_id;sensor_type;location;lat;lon;timestamp;P1;durP1;ratioP1;P2;durP2;ratioP2
62353;SDS011;48391;49.184;2.418;2023-10-09T06:58:20;1.90;;;1.75;;
62353;SDS011;48391;49.184;2.418;2023-10-09T07:00:54;4.20;;;1.95;;
62353;SDS011;48391;49.184;2.418;2023-10-09T07:03:23;2.10;;;2.00;;
62353;SDS011;48391;49.184;2.418;2023-10-09T07:06:10;2.72;;;2.20;;
62353;SDS011;48391;49.184;2.418;2023-10-09T07:08:55;2.42;;;2.03;;
62353;SDS011;48391;49.184;2.418;2023-10-09T07:11:34;2.53;;;1.83;;
62353;SDS011;48391;49.184;2.418;2023-10-09T07:14:09;2.25;;;2.05;;
62353;SDS011;48391;49.184;2.418;2023-10-09T07:17:00;2.42;;;1.95;;
62353;SDS011;48391;49.184;2.418;2023-10-09T07:19:27;2.40;;;1.90;;
62353;SDS011;48391;49.184;2.418;2023-10-09T07:22:03;3.10;;;2.10;;
62353;SDS011;48391;49.184;2.418;2023-10-09T07:24:29;1.73;;;1.47;;
62353;SDS011;48391;49.184;2.418;2023-10-09T07:27:26;2.00;;;1.60;;
62353;SDS011;48391;49.184;2.418;2023-10-09T07:30:12;1.50;;;1.40;;
62353;SDS011;48391;49.184;2.418;2023-10-09T07:32:54;2.55;;;1.48;;
62353;SDS011;48391;49.184;2.418;2023-10-09T07:35:21;2.83;;;2.10;;
62353;SDS011;48391;49.184;2.418;2023-10-09T07:38:16;3.30;;;1.77;;
62353;SDS011;48391;49.184;2.418;2023-10-09T07:40:49;3.28;;;1.90;;
62353;SDS011;48391;49.184;2.418;2023-10-09T07:43:45;3.22;;;2.08;;
62353;SDS011;48391;49.184;2.418;2023-10-09T07:46:12;2.63;;;1.75;;
62353;SDS011;48391;49.184;2.418;2023-10-09T07:48:57;2.72;;;1.33;;
62353;SDS011;48391;49.184;2.418;2023-10-09T07:51:26;3.42;;;2.33;;
62353;SDS011;48391;49.184;2.418;2023-10-09T07:53:58;2.53;;;1.85;;
62353;SDS011;48391;49.184;2.418;2023-10-09T07:56:34;2.42;;;1.73;;
62353;SDS011;48391;49.184;2.418;2023-10-09T07:59:09;2.30;;;2.13;;
62353;SDS011;48391;49.184;2.418;2023-10-09T08:01:39;3.83;;;2.20;;
62353;SDS011;48391;49.184;2.418;2023-10-09T08:04:17;5.70;;;2.08;;
62353;SDS011;48391;49.184;2.418;2023-10-09T08:06:45;1.80;;;1.67;;
62353;SDS011;48391;49.184;2.418;2023-10-09T08:09:12;1.58;;;1.48;;
62353;SDS011;48391;49.184;2.418;2023-10-09T08:11:44;1.67;;;1.42;;
62353;SDS011;48391;49.184;2.418;2023-10-09T08:14:11;3.53;;;2.25;;
62353;SDS011;48391;49.184;2.418;2023-10-09T08:16:46;2.10;;;1.83;;
62353;SDS011;48391;49.184;2.418;2023-10-09T08:19:12;4.20;;;2.47;;
62353;SDS011;48391;49.184;2.418;2023-10-09T08:21:56;3.55;;;2.50;;
62353;SDS011;48391;49.184;2.418;2023-10-09T08:24:48;6.32;;;3.55;;
62353;SDS011;48391;49.184;2.418;2023-10-09T08:27:21;3.90;;;2.80;;
62353;SDS011;48391;49.184;2.418;2023-10-09T08:29:59;4.50;;;2.80;;
62353;SDS011;48391;49.184;2.418;2023-10-09T08:32:45;2.20;;;2.00;;
62353;SDS011;48391;49.184;2.418;2023-10-09T08:35:31;4.72;;;3.22;;
62353;SDS011;48391;49.184;2.418;2023-10-09T08:37:59;3.22;;;2.83;;
62353;SDS011;48391;49.184;2.418;2023-10-09T08:40:32;4.38;;;2.38;;
62353;SDS011;48391;49.184;2.418;2023-10-09T08:43:23;4.77;;;2.53;;
62353;SDS011;48391;49.184;2.418;2023-10-09T08:45:49;3.05;;;2.20;;
62353;SDS011;48391;49.184;2.418;2023-10-09T08:48:18;5.03;;;4.18;;
62353;SDS011;48391;49.184;2.418;2023-10-09T08:50:47;4.35;;;2.85;;
62353;SDS011;48391;49.184;2.418;2023-10-09T08:53:14;4.28;;;3.40;;
62353;SDS011;48391;49.184;2.418;2023-10-09T08:55:41;5.47;;;2.88;;
62353;SDS011;48391;49.184;2.418;2023-10-09T08:58:08;2.53;;;1.92;;
62353;SDS011;48391;49.184;2.418;2023-10-09T09:00:53;3.70;;;2.53;;
62353;SDS011;48391;49.184;2.418;2023-10-09T09:06:00;3.50;;;2.50;;
62353;SDS011;48391;49.184;2.418;2023-10-09T09:08:28;3.65;;;3.03;;
62353;SDS011;48391;49.184;2.418;2023-10-09T09:11:01;3.50;;;2.45;;
62353;SDS011;48391;49.184;2.418;2023-10-09T09:13:47;2.38;;;2.17;;
62353;SDS011;48391;49.184;2.418;2023-10-09T09:18:49;3.80;;;2.30;;
62353;SDS011;48391;49.184;2.418;2023-10-09T09:21:17;5.82;;;2.60;;
62353;SDS011;48391;49.184;2.418;2023-10-09T09:23:54;2.30;;;2.10;;
62353;SDS011;48391;49.184;2.418;2023-10-09T09:26:35;3.47;;;2.17;;
62353;SDS011;48391;49.184;2.418;2023-10-09T09:29:02;3.22;;;2.45;;
62353;SDS011;48391;49.184;2.418;2023-10-09T09:31:30;3.58;;;2.17;;
62353;SDS011;48391;49.184;2.418;2023-10-09T09:34:02;3.08;;;2.10;;
62353;SDS011;48391;49.184;2.418;2023-10-09T09:36:33;2.00;;;1.80;;
62353;SDS011;48391;49.184;2.418;2023-10-09T09:38:59;1.55;;;1.45;;
62353;SDS011;48391;49.184;2.418;2023-10-09T09:41:26;2.22;;;2.05;;
62353;SDS011;48391;49.184;2.418;2023-10-09T09:43:53;3.65;;;2.13;;
62353;SDS011;48391;49.184;2.418;2023-10-09T09:46:31;3.20;;;2.17;;
62353;SDS011;48391;49.184;2.418;2023-10-09T09:49:03;3.40;;;2.05;;
62353;SDS011;48391;49.184;2.418;2023-10-09T09:51:33;3.67;;;1.95;;
62353;SDS011;48391;49.184;2.418;2023-10-09T09:54:01;3.38;;;1.88;;
62353;SDS011;48391;49.184;2.418;2023-10-09T09:56:28;2.97;;;2.30;;
62353;SDS011;48391;49.184;2.418;2023-10-09T09:58:57;3.72;;;2.45;;
62353;SDS011;48391;49.184;2.418;2023-10-09T10:01:30;2.47;;;2.28;;
62353;SDS011;48391;49.184;2.418;2023-10-09T10:04:18;2.33;;;1.83;;
62353;SDS011;48391;49.184;2.418;2023-10-09T10:06:47;2.28;;;1.40;;
62353;SDS011;48391;49.184;2.418;2023-10-09T10:09:36;3.05;;;1.45;;
62353;SDS011;48391;49.184;2.418;2023-10-09T10:12:04;1.95;;;1.23;;
62353;SDS011;48391;49.184;2.418;2023-10-09T10:17:30;2.42;;;1.92;;
62353;SDS011;48391;49.184;2.418;2023-10-09T10:22:29;3.20;;;2.08;;
62353;SDS011;48391;49.184;2.418;2023-10-09T10:24:56;1.45;;;1.35;;
62353;SDS011;48391;49.184;2.418;2023-10-09T10:27:23;1.40;;;1.30;;
62353;SDS011;48391;49.184;2.418;2023-10-09T10:35:21;2.85;;;1.80;;
62353;SDS011;48391;49.184;2.418;2023-10-09T10:38:01;2.08;;;1.88;;
62353;SDS011;48391;49.184;2.418;2023-10-09T10:40:36;2.35;;;2.03;;
62353;SDS011;48391;49.184;2.418;2023-10-09T10:43:17;1.40;;;1.10;;
62353;SDS011;48391;49.184;2.418;2023-10-09T10:46:02;1.98;;;1.50;;
62353;SDS011;48391;49.184;2.418;2023-10-09T10:48:47;2.33;;;1.10;;
62353;SDS011;48391;49.184;2.418;2023-10-09T10:51:14;1.02;;;0.93;;
62353;SDS011;48391;49.184;2.418;2023-10-09T10:53:55;1.65;;;1.40;;
62353;SDS011;48391;49.184;2.418;2023-10-09T10:56:23;2.03;;;1.33;;
62353;SDS011;48391;49.184;2.418;2023-10-09T10:59:09;1.90;;;1.67;;
62353;SDS011;48391;49.184;2.418;2023-10-09T11:01:35;2.50;;;1.35;;
62353;SDS011;48391;49.184;2.418;2023-10-09T11:04:20;2.47;;;1.65;;
62353;SDS011;48391;49.184;2.418;2023-10-09T11:06:53;2.20;;;1.60;;
62353;SDS011;48391;49.184;2.418;2023-10-09T11:09:26;1.95;;;1.58;;
62353;SDS011;48391;49.184;2.418;2023-10-09T11:12:04;1.60;;;1.45;;
62353;SDS011;48391;49.184;2.418;2023-10-09T11:14:49;1.70;;;1.58;;
62353;SDS011;48391;49.184;2.418;2023-10-09T11:17:33;1.85;;;1.75;;
62353;SDS011;48391;49.184;2.418;2023-10-09T11:20:08;1.80;;;1.70;;
62353;SDS011;48391;49.184;2.418;2023-10-09T11:23:00;1.75;;;1.55;;
62353;SDS011;48391;49.184;2.418;2023-10-09T11:25:38;2.10;;;1.83;;
62353;SDS011;48391;49.184;2.418;2023-10-09T11:30:49;2.47;;;1.92;;
62353;SDS011;48391;49.184;2.418;2023-10-09T11:33:20;3.55;;;1.77;;
62353;SDS011;48391;49.184;2.418;2023-10-09T11:35:56;2.53;;;1.95;;
62353;SDS011;48391;49.184;2.418;2023-10-09T11:38:23;2.67;;;1.67;;
62353;SDS011;48391;49.184;2.418;2023-10-09T11:40:50;2.10;;;1.50;;
62353;SDS011;48391;49.184;2.418;2023-10-09T11:43:19;1.38;;;1.23;;
62353;SDS011;48391;49.184;2.418;2023-10-09T11:46:11;2.55;;;1.88;;
62353;SDS011;48391;49.184;2.418;2023-10-09T11:49:06;2.30;;;2.10;;
62353;SDS011;48391;49.184;2.418;2023-10-09T11:51:44;3.08;;;1.80;;
62353;SDS011;48391;49.184;2.418;2023-10-09T11:54:36;3.50;;;1.98;;
62353;SDS011;48391;49.184;2.418;2023-10-09T11:57:02;2.83;;;1.83;;
62353;SDS011;48391;49.184;2.418;2023-10-09T11:59:33;2.45;;;1.73;;
62353;SDS011;48391;49.184;2.418;2023-10-09T12:02:13;4.72;;;1.95;;
62353;SDS011;48391;49.184;2.418;2023-10-09T12:04:42;1.52;;;1.42;;
62353;SDS011;48391;49.184;2.418;2023-10-09T12:07:08;1.85;;;1.70;;
62353;SDS011;48391;49.184;2.418;2023-10-09T12:09:35;2.10;;;1.50;;
62353;SDS011;48391;49.184;2.418;2023-10-09T12:12:02;2.13;;;1.92;;
62353;SDS011;48391;49.184;2.418;2023-10-09T12:14:28;2.67;;;1.50;;
62353;SDS011;48391;49.184;2.418;2023-10-09T12:17:01;2.40;;;1.80;;
62353;SDS011;48391;49.184;2.418;2023-10-09T12:21:59;2.30;;;1.42;;
62353;SDS011;48391;49.184;2.418;2023-10-09T12:24:34;2.40;;;1.45;;
62353;SDS011;48391;49.184;2.418;2023-10-09T12:27:00;2.30;;;2.08;;
62353;SDS011;48391;49.184;2.418;2023-10-09T12:29:26;1.80;;;1.55;;
62353;SDS011;48391;49.184;2.418;2023-10-09T12:31:58;2.22;;;1.60;;
62353;SDS011;48391;49.184;2.418;2023-10-09T12:34:27;2.00;;;1.80;;
62353;SDS011;48391;49.184;2.418;2023-10-09T12:36:53;1.83;;;1.60;;
62353;SDS011;48391;49.184;2.418;2023-10-09T12:39:20;3.03;;;2.38;;
62353;SDS011;48391;49.184;2.418;2023-10-09T12:41:47;3.70;;;2.97;;
62353;SDS011;48391;49.184;2.418;2023-10-09T12:44:13;1.55;;;1.45;;
62353;SDS011;48391;49.184;2.418;2023-10-09T12:46:40;2.45;;;2.00;;
62353;SDS011;48391;49.184;2.418;2023-10-09T12:49:07;5.43;;;2.97;;
62353;SDS011;48391;49.184;2.418;2023-10-09T12:51:33;3.78;;;3.00;;
62353;SDS011;48391;49.184;2.418;2023-10-09T12:53:59;3.72;;;2.72;;
62353;SDS011;48391;49.184;2.418;2023-10-09T12:56:26;3.53;;;3.03;;
62353;SDS011;48391;49.184;2.418;2023-10-09T12:59:00;4.70;;;2.22;;
62353;SDS011;48391;49.184;2.418;2023-10-09T13:01:29;2.40;;;2.17;;
62353;SDS011;48391;49.184;2.418;2023-10-09T13:03:59;4.05;;;2.90;;
62353;SDS011;48391;49.184;2.418;2023-10-09T13:06:26;3.25;;;2.78;;
62353;SDS011;48391;49.184;2.418;2023-10-09T13:08:52;4.85;;;3.00;;
62353;SDS011;48391;49.184;2.418;2023-10-09T13:11:24;4.07;;;3.08;;
62353;SDS011;48391;49.184;2.418;2023-10-09T13:13:50;3.03;;;2.50;;
62353;SDS011;48391;49.184;2.418;2023-10-09T13:16:20;3.63;;;2.50;;
62353;SDS011;48391;49.184;2.418;2023-10-09T13:18:50;4.03;;;2.30;;
62353;SDS011;48391;49.184;2.418;2023-10-09T13:21:16;3.53;;;2.95;;
62353;SDS011;48391;49.184;2.418;2023-10-09T13:23:42;2.67;;;2.35;;
62353;SDS011;48391;49.184;2.418;2023-10-09T13:26:12;3.00;;;2.72;;
62353;SDS011;48391;49.184;2.418;2023-10-09T13:28:50;3.47;;;3.17;;
62353;SDS011;48391;49.184;2.418;2023-10-09T13:31:17;4.82;;;3.42;;
62353;SDS011;48391;49.184;2.418;2023-10-09T13:33:44;3.20;;;2.72;;
62353;SDS011;48391;49.184;2.418;2023-10-09T13:36:10;2.88;;;2.55;;
62353;SDS011;48391;49.184;2.418;2023-10-09T13:38:47;4.07;;;3.35;;
62353;SDS011;48391;49.184;2.418;2023-10-09T13:41:13;3.90;;;2.58;;
62353;SDS011;48391;49.184;2.418;2023-10-09T13:43:40;3.40;;;2.33;;
62353;SDS011;48391;49.184;2.418;2023-10-09T13:46:10;3.55;;;2.90;;
62353;SDS011;48391;49.184;2.418;2023-10-09T13:48:42;2.55;;;2.30;;
62353;SDS011;48391;49.184;2.418;2023-10-09T13:51:09;3.67;;;2.65;;
62353;SDS011;48391;49.184;2.418;2023-10-09T13:53:41;4.03;;;2.70;;
62353;SDS011;48391;49.184;2.418;2023-10-09T13:56:17;3.28;;;2.67;;
62353;SDS011;48391;49.184;2.418;2023-10-09T13:58:44;2.28;;;2.08;;
62353;SDS011;48391;49.184;2.418;2023-10-09T14:01:10;3.05;;;2.20;;
62353;SDS011;48391;49.184;2.418;2023-10-09T14:03:36;3.35;;;2.47;;
62353;SDS011;48391;49.184;2.418;2023-10-09T14:06:04;2.50;;;2.30;;
62353;SDS011;48391;49.184;2.418;2023-10-09T14:08:37;2.90;;;2.50;;
62353;SDS011;48391;49.184;2.418;2023-10-09T14:11:07;3.58;;;2.63;;
62353;SDS011;48391;49.184;2.418;2023-10-09T14:13:41;3.15;;;2.28;;
62353;SDS011;48391;49.184;2.418;2023-10-09T14:16:07;3.27;;;2.97;;
62353;SDS011;48391;49.184;2.418;2023-10-09T14:18:49;3.80;;;2.67;;
62353;SDS011;48391;49.184;2.418;2023-10-09T14:21:18;3.58;;;2.97;;
62353;SDS011;48391;49.184;2.418;2023-10-09T14:23:44;4.05;;;2.85;;
62353;SDS011;48391;49.184;2.418;2023-10-09T14:26:13;5.50;;;2.35;;
62353;SDS011;48391;49.184;2.418;2023-10-09T14:28:40;4.25;;;2.83;;
62353;SDS011;48391;49.184;2.418;2023-10-09T14:31:08;3.55;;;2.95;;
62353;SDS011;48391;49.184;2.418;2023-10-09T14:33:37;2.58;;;2.20;;
62353;SDS011;48391;49.184;2.418;2023-10-09T14:36:05;2.90;;;2.40;;
62353;SDS011;48391;49.184;2.418;2023-10-09T14:38:32;3.58;;;2.63;;
62353;SDS011;48391;49.184;2.418;2023-10-09T14:41:03;3.67;;;2.70;;
62353;SDS011;48391;49.184;2.418;2023-10-09T14:43:29;2.50;;;2.30;;
62353;SDS011;48391;49.184;2.418;2023-10-09T14:45:58;3.40;;;2.70;;
62353;SDS011;48391;49.184;2.418;2023-10-09T14:48:24;3.40;;;2.58;;
62353;SDS011;48391;49.184;2.418;2023-10-09T14:50:54;2.40;;;2.22;;
62353;SDS011;48391;49.184;2.418;2023-10-09T14:53:23;1.60;;;1.50;;
62353;SDS011;48391;49.184;2.418;2023-10-09T14:55:58;2.40;;;2.10;;
62353;SDS011;48391;49.184;2.418;2023-10-09T14:58:34;2.50;;;2.30;;
62353;SDS011;48391;49.184;2.418;2023-10-09T15:01:09;1.73;;;1.63;;
62353;SDS011;48391;49.184;2.418;2023-10-09T15:03:37;2.20;;;1.90;;
62353;SDS011;48391;49.184;2.418;2023-10-09T15:06:04;3.47;;;1.98;;
62353;SDS011;48391;49.184;2.418;2023-10-09T15:08:36;2.50;;;2.30;;
62353;SDS011;48391;49.184;2.418;2023-10-09T15:11:03;3.25;;;2.30;;
62353;SDS011;48391;49.184;2.418;2023-10-09T15:13:29;1.90;;;1.80;;
62353;SDS011;48391;49.184;2.418;2023-10-09T15:15:55;2.42;;;2.22;;
62353;SDS011;48391;49.184;2.418;2023-10-09T15:18:22;3.15;;;2.85;;
62353;SDS011;48391;49.184;2.418;2023-10-09T15:20:48;3.65;;;2.90;;
62353;SDS011;48391;49.184;2.418;2023-10-09T15:23:14;3.22;;;2.53;;
62353;SDS011;48391;49.184;2.418;2023-10-09T15:25:40;4.53;;;3.08;;
62353;SDS011;48391;49.184;2.418;2023-10-09T15:28:10;3.20;;;2.60;;
62353;SDS011;48391;49.184;2.418;2023-10-09T15:30:37;2.25;;;2.10;;
62353;SDS011;48391;49.184;2.418;2023-10-09T15:33:07;2.08;;;1.80;;
62353;SDS011;48391;49.184;2.418;2023-10-09T15:35:35;2.72;;;2.00;;
62353;SDS011;48391;49.184;2.418;2023-10-09T15:38:02;1.92;;;1.70;;
62353;SDS011;48391;49.184;2.418;2023-10-09T15:40:31;1.77;;;1.63;;
62353;SDS011;48391;49.184;2.418;2023-10-09T15:43:01;2.47;;;2.00;;
62353;SDS011;48391;49.184;2.418;2023-10-09T15:45:29;1.83;;;1.73;;
62353;SDS011;48391;49.184;2.418;2023-10-09T15:47:56;2.38;;;1.95;;
62353;SDS011;48391;49.184;2.418;2023-10-09T15:50:24;1.85;;;1.75;;
62353;SDS011;48391;49.184;2.418;2023-10-09T15:52:54;2.15;;;1.95;;
62353;SDS011;48391;49.184;2.418;2023-10-09T15:55:20;2.38;;;2.17;;
62353;SDS011;48391;49.184;2.418;2023-10-09T15:57:49;2.22;;;2.03;;
62353;SDS011;48391;49.184;2.418;2023-10-09T16:00:17;2.80;;;2.40;;
62353;SDS011;48391;49.184;2.418;2023-10-09T16:02:44;2.33;;;2.13;;
62353;SDS011;48391;49.184;2.418;2023-10-09T16:05:10;3.13;;;2.13;;
62353;SDS011;48391;49.184;2.418;2023-10-09T16:07:39;1.58;;;1.48;;
62353;SDS011;48391;49.184;2.418;2023-10-09T16:10:06;2.85;;;2.00;;
62353;SDS011;48391;49.184;2.418;2023-10-09T16:12:34;2.38;;;2.15;;
62353;SDS011;48391;49.184;2.418;2023-10-09T16:15:00;2.60;;;2.28;;
62353;SDS011;48391;49.184;2.418;2023-10-09T16:17:29;3.00;;;1.90;;
62353;SDS011;48391;49.184;2.418;2023-10-09T16:19:55;2.20;;;2.00;;
62353;SDS011;48391;49.184;2.418;2023-10-09T16:22:22;1.90;;;1.75;;
62353;SDS011;48391;49.184;2.418;2023-10-09T16:24:49;2.33;;;1.88;;
62353;SDS011;48391;49.184;2.418;2023-10-09T16:27:17;5.20;;;2.28;;
62353;SDS011;48391;49.184;2.418;2023-10-09T16:29:48;2.08;;;1.88;;
62353;SDS011;48391;49.184;2.418;2023-10-09T16:32:15;3.92;;;2.15;;
62353;SDS011;48391;49.184;2.418;2023-10-09T16:34:44;2.83;;;2.60;;
62353;SDS011;48391;49.184;2.418;2023-10-09T16:37:10;2.22;;;2.03;;
62353;SDS011;48391;49.184;2.418;2023-10-09T16:39:37;3.53;;;2.38;;
62353;SDS011;48391;49.184;2.418;2023-10-09T16:42:04;1.98;;;1.85;;
62353;SDS011;48391;49.184;2.418;2023-10-09T16:44:30;2.60;;;2.25;;
62353;SDS011;48391;49.184;2.418;2023-10-09T16:46:59;2.45;;;2.25;;
62353;SDS011;48391;49.184;2.418;2023-10-09T16:49:25;4.93;;;2.72;;
62353;SDS011;48391;49.184;2.418;2023-10-09T16:51:52;3.45;;;2.42;;
62353;SDS011;48391;49.184;2.418;2023-10-09T16:54:20;3.28;;;2.22;;
62353;SDS011;48391;49.184;2.418;2023-10-09T16:56:46;2.78;;;2.10;;
62353;SDS011;48391;49.184;2.418;2023-10-09T16:59:15;1.75;;;1.50;;
62353;SDS011;48391;49.184;2.418;2023-10-09T17:01:41;2.42;;;2.22;;
62353;SDS011;48391;49.184;2.418;2023-10-09T17:04:09;3.42;;;2.50;;
62353;SDS011;48391;49.184;2.418;2023-10-09T17:06:41;2.42;;;2.15;;
62353;SDS011;48391;49.184;2.418;2023-10-09T17:09:09;2.80;;;2.10;;
62353;SDS011;48391;49.184;2.418;2023-10-09T17:11:40;2.35;;;2.15;;
62353;SDS011;48391;49.184;2.418;2023-10-09T17:14:06;2.42;;;1.80;;
62353;SDS011;48391;49.184;2.418;2023-10-09T17:16:37;2.35;;;1.80;;
62353;SDS011;48391;49.184;2.418;2023-10-09T17:19:06;3.33;;;2.20;;
62353;SDS011;48391;49.184;2.418;2023-10-09T17:21:32;3.03;;;2.03;;
62353;SDS011;48391;49.184;2.418;2023-10-09T17:24:02;5.75;;;2.25;;
62353;SDS011;48391;49.184;2.418;2023-10-09T17:26:28;2.47;;;1.83;;
62353;SDS011;48391;49.184;2.418;2023-10-09T17:28:54;2.83;;;1.90;;
62353;SDS011;48391;49.184;2.418;2023-10-09T17:31:21;4.03;;;2.47;;
62353;SDS011;48391;49.184;2.418;2023-10-09T17:33:51;2.60;;;2.40;;
62353;SDS011;48391;49.184;2.418;2023-10-09T17:36:20;2.38;;;2.15;;
62353;SDS011;48391;49.184;2.418;2023-10-09T17:38:46;4.43;;;2.90;;
62353;SDS011;48391;49.184;2.418;2023-10-09T17:41:16;3.43;;;2.57;;
62353;SDS011;48391;49.184;2.418;2023-10-09T17:43:43;4.65;;;2.25;;
62353;SDS011;48391;49.184;2.418;2023-10-09T17:46:09;3.60;;;2.97;;
62353;SDS011;48391;49.184;2.418;2023-10-09T17:48:37;3.67;;;2.20;;
62353;SDS011;48391;49.184;2.418;2023-10-09T17:51:03;2.33;;;1.95;;
62353;SDS011;48391;49.184;2.418;2023-10-09T17:53:34;2.65;;;2.05;;
62353;SDS011;48391;49.184;2.418;2023-10-09T17:56:03;3.00;;;1.80;;
62353;SDS011;48391;49.184;2.418;2023-10-09T17:58:29;2.00;;;1.90;;
62353;SDS011;48391;49.184;2.418;2023-10-09T18:00:56;2.90;;;2.28;;
62353;SDS011;48391;49.184;2.418;2023-10-09T18:03:31;3.38;;;2.17;;
62353;SDS011;48391;49.184;2.418;2023-10-09T18:05:57;2.22;;;2.03;;
62353;SDS011;48391;49.184;2.418;2023-10-09T18:08:24;4.00;;;2.50;;
62353;SDS011;48391;49.184;2.418;2023-10-09T18:10:57;2.78;;;2.10;;
62353;SDS011;48391;49.184;2.418;2023-10-09T18:13:30;2.40;;;2.20;;
62353;SDS011;48391;49.184;2.418;2023-10-09T18:16:03;2.67;;;1.90;;
62353;SDS011;48391;49.184;2.418;2023-10-09T18:18:36;3.28;;;2.28;;
62353;SDS011;48391;49.184;2.418;2023-10-09T18:21:03;2.80;;;2.28;;
62353;SDS011;48391;49.184;2.418;2023-10-09T18:23:30;3.47;;;2.92;;
62353;SDS011;48391;49.184;2.418;2023-10-09T18:25:56;2.03;;;1.80;;
62353;SDS011;48391;49.184;2.418;2023-10-09T18:28:23;2.78;;;2.38;;
62353;SDS011;48391;49.184;2.418;2023-10-09T18:30:50;2.55;;;2.20;;
62353;SDS011;48391;49.184;2.418;2023-10-09T18:33:17;3.03;;;2.33;;
62353;SDS011;48391;49.184;2.418;2023-10-09T18:35:43;3.45;;;2.30;;
62353;SDS011;48391;49.184;2.418;2023-10-09T18:38:09;2.33;;;1.92;;
62353;SDS011;48391;49.184;2.418;2023-10-09T18:40:41;2.42;;;1.98;;
62353;SDS011;48391;49.184;2.418;2023-10-09T18:43:11;2.33;;;2.13;;
62353;SDS011;48391;49.184;2.418;2023-10-09T18:45:38;2.60;;;2.15;;
62353;SDS011;48391;49.184;2.418;2023-10-09T18:48:04;2.10;;;1.65;;
62353;SDS011;48391;49.184;2.418;2023-10-09T18:50:38;2.95;;;2.45;;
62353;SDS011;48391;49.184;2.418;2023-10-09T18:53:07;5.60;;;2.95;;
62353;SDS011;48391;49.184;2.418;2023-10-09T18:55:35;5.15;;;2.40;;
62353;SDS011;48391;49.184;2.418;2023-10-09T18:58:01;3.72;;;2.85;;
62353;SDS011;48391;49.184;2.418;2023-10-09T19:00:27;5.43;;;2.70;;
62353;SDS011;48391;49.184;2.418;2023-10-09T19:02:57;4.20;;;2.45;;
62353;SDS011;48391;49.184;2.418;2023-10-09T19:05:25;3.50;;;2.78;;
62353;SDS011;48391;49.184;2.418;2023-10-09T19:07:51;3.90;;;2.30;;
62353;SDS011;48391;49.184;2.418;2023-10-09T19:10:18;3.25;;;2.20;;
62353;SDS011;48391;49.184;2.418;2023-10-09T19:12:46;4.07;;;3.08;;
62353;SDS011;48391;49.184;2.418;2023-10-09T19:15:17;3.40;;;2.20;;
62353;SDS011;48391;49.184;2.418;2023-10-09T19:17:43;3.95;;;2.92;;
62353;SDS011;48391;49.184;2.418;2023-10-09T19:20:10;2.80;;;2.50;;
62353;SDS011;48391;49.184;2.418;2023-10-09T19:22:39;5.05;;;3.13;;
62353;SDS011;48391;49.184;2.418;2023-10-09T19:25:05;3.70;;;2.72;;
62353;SDS011;48391;49.184;2.418;2023-10-09T19:27:51;3.38;;;2.58;;
62353;SDS011;48391;49.184;2.418;2023-10-09T19:30:20;3.70;;;3.17;;
62353;SDS011;48391;49.184;2.418;2023-10-09T19:32:46;4.70;;;2.55;;
62353;SDS011;48391;49.184;2.418;2023-10-09T19:35:13;3.47;;;2.58;;
62353;SDS011;48391;49.184;2.418;2023-10-09T19:37:46;4.75;;;2.60;;
62353;SDS011;48391;49.184;2.418;2023-10-09T19:40:12;2.97;;;2.45;;
62353;SDS011;48391;49.184;2.418;2023-10-09T19:42:39;3.70;;;2.60;;
62353;SDS011;48391;49.184;2.418;2023-10-09T19:45:05;3.63;;;2.53;;
62353;SDS011;48391;49.184;2.418;2023-10-09T19:47:45;3.60;;;2.33;;
62353;SDS011;48391;49.184;2.418;2023-10-09T19:50:11;3.50;;;2.38;;
62353;SDS011;48391;49.184;2.418;2023-10-09T19:52:42;5.15;;;3.15;;
62353;SDS011;48391;49.184;2.418;2023-10-09T19:55:10;5.57;;;2.95;;
62353;SDS011;48391;49.184;2.418;2023-10-09T19:57:36;2.67;;;2.20;;
62353;SDS011;48391;49.184;2.418;2023-10-09T20:00:05;2.90;;;2.60;;
62353;SDS011;48391;49.184;2.418;2023-10-09T20:02:33;4.00;;;2.70;;
62353;SDS011;48391;49.184;2.418;2023-10-09T20:05:00;3.33;;;2.22;;
62353;SDS011;48391;49.184;2.418;2023-10-09T20:07:27;3.40;;;2.13;;
62353;SDS011;48391;49.184;2.418;2023-10-09T20:09:53;4.68;;;3.45;;
62353;SDS011;48391;49.184;2.418;2023-10-09T20:12:23;2.83;;;2.38;;
62353;SDS011;48391;49.184;2.418;2023-10-09T20:14:52;2.58;;;2.38;;
62353;SDS011;48391;49.184;2.418;2023-10-09T20:17:18;2.05;;;1.90;;
62353;SDS011;48391;49.184;2.418;2023-10-09T20:19:44;3.05;;;1.80;;
62353;SDS011;48391;49.184;2.418;2023-10-09T20:22:10;4.88;;;2.47;;
62353;SDS011;48391;49.184;2.418;2023-10-09T20:24:37;3.22;;;2.22;;
62353;SDS011;48391;49.184;2.418;2023-10-09T20:27:04;2.47;;;2.10;;
62353;SDS011;48391;49.184;2.418;2023-10-09T20:29:33;2.42;;;1.98;;
62353;SDS011;48391;49.184;2.418;2023-10-09T20:32:02;3.15;;;2.42;;
62353;SDS011;48391;49.184;2.418;2023-10-09T20:34:31;2.53;;;2.13;;
62353;SDS011;48391;49.184;2.418;2023-10-09T20:36:57;2.47;;;1.92;;
62353;SDS011;48391;49.184;2.418;2023-10-09T20:39:24;3.40;;;2.65;;
62353;SDS011;48391;49.184;2.418;2023-10-09T20:41:51;2.42;;;1.63;;
62353;SDS011;48391;49.184;2.418;2023-10-09T20:44:17;4.00;;;2.63;;
62353;SDS011;48391;49.184;2.418;2023-10-09T20:46:43;3.53;;;2.33;;
62353;SDS011;48391;49.184;2.418;2023-10-09T20:49:12;3.55;;;2.97;;
62353;SDS011;48391;49.184;2.418;2023-10-09T20:51:39;2.40;;;2.15;;
62353;SDS011;48391;49.184;2.418;2023-10-09T20:54:05;3.47;;;2.70;;
62353;SDS011;48391;49.184;2.418;2023-10-09T20:56:34;3.22;;;2.67;;
62353;SDS011;48391;49.184;2.418;2023-10-09T20:59:01;3.83;;;2.22;;
62353;SDS011;48391;49.184;2.418;2023-10-09T21:01:27;3.15;;;2.38;;
62353;SDS011;48391;49.184;2.418;2023-10-09T21:03:53;3.30;;;2.78;;
62353;SDS011;48391;49.184;2.418;2023-10-09T21:06:19;2.78;;;2.47;;
62353;SDS011;48391;49.184;2.418;2023-10-09T21:08:46;3.47;;;2.47;;
62353;SDS011;48391;49.184;2.418;2023-10-09T21:11:12;3.53;;;2.42;;
62353;SDS011;48391;49.184;2.418;2023-10-09T21:13:38;3.05;;;2.47;;
62353;SDS011;48391;49.184;2.418;2023-10-09T21:16:05;3.28;;;2.38;;
62353;SDS011;48391;49.184;2.418;2023-10-09T21:18:37;2.65;;;2.28;;
62353;SDS011;48391;49.184;2.418;2023-10-09T21:21:03;3.20;;;2.67;;
62353;SDS011;48391;49.184;2.418;2023-10-09T21:23:34;3.20;;;2.50;;
62353;SDS011;48391;49.184;2.418;2023-10-09T21:26:00;3.13;;;2.15;;
62353;SDS011;48391;49.184;2.418;2023-10-09T21:28:26;2.65;;;2.22;;
62353;SDS011;48391;49.184;2.418;2023-10-09T21:30:52;3.30;;;2.65;;
62353;SDS011;48391;49.184;2.418;2023-10-09T21:33:18;4.43;;;2.65;;
62353;SDS011;48391;49.184;2.418;2023-10-09T21:35:44;4.72;;;3.25;;
62353;SDS011;48391;49.184;2.418;2023-10-09T21:38:10;4.18;;;2.85;;
62353;SDS011;48391;49.184;2.418;2023-10-09T21:40:38;3.53;;;2.97;;
62353;SDS011;48391;49.184;2.418;2023-10-09T21:43:04;4.05;;;3.25;;
62353;SDS011;48391;49.184;2.418;2023-10-09T21:45:37;3.25;;;2.75;;
62353;SDS011;48391;49.184;2.418;2023-10-09T21:48:04;2.75;;;2.35;;
62353;SDS011;48391;49.184;2.418;2023-10-09T21:50:33;3.42;;;2.92;;
62353;SDS011;48391;49.184;2.418;2023-10-09T21:53:02;3.45;;;2.75;;
62353;SDS011;48391;49.184;2.418;2023-10-09T21:55:29;3.72;;;3.00;;
62353;SDS011;48391;49.184;2.418;2023-10-09T21:57:59;3.53;;;2.75;;
62353;SDS011;48391;49.184;2.418;2023-10-09T22:00:25;4.32;;;3.22;;
62353;SDS011;48391;49.184;2.418;2023-10-09T22:03:04;4.13;;;3.40;;
62353;SDS011;48391;49.184;2.418;2023-10-09T22:05:41;4.38;;;3.00;;
62353;SDS011;48391;49.184;2.418;2023-10-09T22:08:09;3.45;;;2.55;;
62353;SDS011;48391;49.184;2.418;2023-10-09T22:10:36;3.83;;;2.88;;
62353;SDS011;48391;49.184;2.418;2023-10-09T22:13:02;3.92;;;2.40;;
62353;SDS011;48391;49.184;2.418;2023-10-09T22:15:30;3.75;;;2.70;;
62353;SDS011;48391;49.184;2.418;2023-10-09T22:17:56;3.33;;;2.70;;
62353;SDS011;48391;49.184;2.418;2023-10-09T22:20:22;3.10;;;2.80;;
62353;SDS011;48391;49.184;2.418;2023-10-09T22:22:49;4.28;;;2.67;;
62353;SDS011;48391;49.184;2.418;2023-10-09T22:25:22;4.47;;;2.78;;
